KDBN/DBN METAR and TAF weather

Enter ICAO airport designator
Station Type Date Time Source
KDBN METAR 2021/08/05 05:35 UTC NOAA

KDBN 050535Z AUTO 00000KT 10SM SCT029 OVC037 22/21 A3008 RMK AO2


Station Type Date Time Source
KDBN Decoded METAR 2021/08/05 05:35 UTC NOAA

Dublin, W H 'Bud' Barron Airport, GA, United States (KDBN) 32-33-52N 082-59-06W
Aug 05, 2021 - 01:35 AM EDT / 2021.08.05 0535 UTC
Wind: Calm:0
Visibility: 10 mile(s):0
Sky conditions: overcast
Temperature: 71 F (22 C)
Dew Point: 69 F (21 C)
Relative Humidity: 94%
Pressure (altimeter): 30.08 in. Hg (1018 hPa)
ob: KDBN 050535Z AUTO 00000KT 10SM SCT029 OVC037 22/21 A3008 RMK AO2
cycle: 5

Station Type Date Time Source
KDBN TAF UTC NOAA

Error!

Example: see airport list